Time;durP1;ratioP1;P1;durP2;ratioP2;P2;SDS_P1;SDS_P2;PMS_P1;PMS_P2;Temp;Humidity;BMP_temperature;BMP_pressure;BME280_temperature;BME280_humidity;BME280_pressure;Samples;Min_cycle;Max_cycle;Signal;HPM_P1;HPM_P2
2022/03/04 00:02:38;;;;;;;28.73;14.20;;;;;;;-139.48;100.00;61774.03;5015143;28;20431;-72
2022/03/04 00:05:22;;;;;;;29.20;14.73;;;;;;;-139.48;100.00;61774.03;5001193;28;20068;-72
2022/03/04 00:08:06;;;;;;;28.73;14.68;;;;;;;-139.48;100.00;61774.03;5016178;28;20517;-72
2022/03/04 00:10:50;;;;;;;26.38;14.13;;;;;;;-139.48;100.00;61774.03;5015000;28;20508;-73
2022/03/04 00:13:34;;;;;;;25.88;14.35;;;;;;;-139.48;100.00;61774.03;5015118;28;20044;-73
2022/03/04 00:16:18;;;;;;;26.83;14.55;;;;;;;-139.48;100.00;61774.03;5015098;28;20100;-71
2022/03/04 00:19:09;;;;;;;25.90;13.48;;;;;;;-139.48;100.00;61774.03;5015022;28;20505;-73
2022/03/04 00:21:54;;;;;;;25.73;14.73;;;;;;;-139.48;100.00;61774.03;5015966;28;20084;-73
2022/03/04 00:24:38;;;;;;;36.50;15.02;;;;;;;-139.48;100.00;61774.03;5015881;28;20053;-72
2022/03/04 00:27:22;;;;;;;32.25;14.48;;;;;;;-139.48;100.00;61774.03;5015659;28;20056;-73
2022/03/04 00:30:07;;;;;;;27.70;14.07;;;;;;;-139.48;100.00;61774.03;5015860;28;20100;-73
2022/03/04 00:32:51;;;;;;;29.13;15.57;;;;;;;-139.48;100.00;61774.03;5015775;28;20044;-72
2022/03/04 00:35:35;;;;;;;29.77;14.23;;;;;;;-139.48;100.00;61774.03;5014525;28;20450;-73
2022/03/04 00:38:19;;;;;;;28.00;13.73;;;;;;;-139.48;100.00;61774.03;5015699;28;20045;-73
2022/03/04 00:41:03;;;;;;;32.90;13.95;;;;;;;-139.48;100.00;61774.03;5000669;28;20041;-73
2022/03/04 00:43:47;;;;;;;27.92;14.25;;;;;;;-139.48;100.00;61774.03;5000749;28;20129;-73
2022/03/04 00:46:31;;;;;;;27.67;13.32;;;;;;;-139.48;100.00;61774.03;5014402;28;20049;-73
2022/03/04 00:49:15;;;;;;;28.20;13.88;;;;;;;-139.48;100.00;61774.03;5014159;28;20516;-71
2022/03/04 00:51:59;;;;;;;24.05;13.13;;;;;;;-139.48;100.00;61774.03;5014130;28;20574;-72
2022/03/04 00:54:43;;;;;;;28.65;14.30;;;;;;;-139.48;100.00;61774.03;5000301;28;20409;-73
2022/03/04 00:57:27;;;;;;;25.90;13.88;;;;;;;-139.48;100.00;61774.03;5014340;28;20099;-73
2022/03/04 01:00:11;;;;;;;25.77;14.00;;;;;;;-139.48;100.00;61774.03;5015012;28;20467;-73
2022/03/04 01:02:55;;;;;;;26.17;13.13;;;;;;;-139.48;100.00;61774.03;5013948;28;20129;-72
2022/03/04 01:05:39;;;;;;;26.90;15.27;;;;;;;-139.48;100.00;61774.03;5014178;28;20052;-70
2022/03/04 01:08:23;;;;;;;27.75;13.30;;;;;;;-139.48;100.00;61774.03;5014381;28;20052;-73
2022/03/04 01:11:07;;;;;;;25.20;13.18;;;;;;;-139.48;100.00;61774.03;5014140;28;20049;-73
2022/03/04 01:13:51;;;;;;;23.15;12.05;;;;;;;-139.48;100.00;61774.03;5013750;28;20387;-73
2022/03/04 01:16:35;;;;;;;30.80;13.80;;;;;;;-139.48;100.00;61774.03;5013893;28;20053;-73
2022/03/04 01:19:19;;;;;;;23.10;13.05;;;;;;;-139.48;100.00;61774.03;5000121;28;20069;-73
2022/03/04 01:22:03;;;;;;;23.55;12.50;;;;;;;-139.48;100.00;61774.03;5014779;28;20052;-72
2022/03/04 01:24:47;;;;;;;;;;;;;;;-139.48;100.00;61774.03;5015238;28;20045;-73
2022/03/04 01:27:32;;;;;;;29.92;13.95;;;;;;;-139.48;100.00;61774.03;5013643;28;19920;-73
2022/03/04 01:30:16;;;;;;;31.70;15.50;;;;;;;-139.48;100.00;61774.03;5013348;28;20075;-73
2022/03/04 01:33:00;;;;;;;32.05;15.02;;;;;;;-139.48;100.00;61774.03;5013613;28;20049;-72
2022/03/04 01:35:45;;;;;;;25.42;14.20;;;;;;;-139.48;100.00;61774.03;5013320;28;20141;-71
2022/03/04 01:38:28;;;;;;;26.92;13.65;;;;;;;-139.48;100.00;61774.03;5013520;28;20044;-73
2022/03/04 01:41:13;;;;;;;27.05;13.38;;;;;;;-139.48;100.00;61774.03;5013175;28;20068;-73
2022/03/04 01:43:57;;;;;;;23.02;12.32;;;;;;;-139.48;100.00;61774.03;5013445;28;20481;-71
2022/03/04 01:46:41;;;;;;;;;;;;;;;-139.48;100.00;61774.03;5014812;28;20075;-73
2022/03/04 01:49:25;;;;;;;24.70;13.33;;;;;;;-139.48;100.00;61774.03;5013276;28;19987;-73
2022/03/04 01:52:09;;;;;;;;;;;;;;;-139.48;100.00;61774.03;5013341;28;20274;-72
2022/03/04 01:54:53;;;;;;;24.23;12.73;;;;;;;-139.48;100.00;61774.03;5013252;28;19984;-73
2022/03/04 01:57:39;;;;;;;29.35;13.75;;;;;;;-139.48;100.00;61774.03;5013182;28;20048;-72
2022/03/04 02:00:23;;;;;;;25.38;12.32;;;;;;;-139.48;100.00;61774.03;4998931;28;20061;-73
2022/03/04 02:03:10;;;;;;;;;;;;;;;-139.48;100.00;61774.03;5013525;28;20124;-72
2022/03/04 02:05:53;;;;;;;21.55;11.88;;;;;;;-139.48;100.00;61774.03;5014078;28;19920;-73
2022/03/04 02:08:37;;;;;;;;;;;;;;;-139.48;100.00;61774.03;5013112;28;20072;-73
2022/03/04 02:11:21;;;;;;;22.33;11.30;;;;;;;-139.48;100.00;61774.03;5012704;28;20019;-72
2022/03/04 02:14:05;;;;;;;26.10;12.32;;;;;;;-139.48;100.00;61774.03;5012665;28;20057;-72
2022/03/04 02:16:51;;;;;;;23.00;12.30;;;;;;;-139.48;100.00;61774.03;5013854;28;20092;-73
2022/03/04 02:19:35;;;;;;;25.85;13.02;;;;;;;-139.48;100.00;61774.03;5013653;28;20108;-72
2022/03/04 02:22:19;;;;;;;24.45;11.73;;;;;;;-139.48;100.00;61774.03;5012174;28;20561;-72
2022/03/04 02:25:05;;;;;;;;;;;;;;;-139.48;100.00;61774.03;5013068;28;20207;-73
2022/03/04 02:27:49;;;;;;;25.25;12.43;;;;;;;-139.48;100.00;61774.03;5013400;28;20063;-73
2022/03/04 02:30:33;;;;;;;27.67;12.77;;;;;;;-139.48;100.00;61774.03;5012278;28;20056;-72
2022/03/04 02:33:17;;;;;;;22.55;12.05;;;;;;;-139.48;100.00;61774.03;5012565;28;20494;-73
2022/03/04 02:36:01;;;;;;;32.47;14.02;;;;;;;-139.48;100.00;61774.03;5012551;28;20390;-73
2022/03/04 02:38:46;;;;;;;28.67;13.75;;;;;;;-139.48;100.00;61774.03;5012433;28;20041;-73
2022/03/04 02:41:30;;;;;;;26.92;13.05;;;;;;;-139.48;100.00;61774.03;5012448;28;20535;-73
2022/03/04 02:44:14;;;;;;;23.80;14.23;;;;;;;-139.48;100.00;61774.03;5012309;28;20402;-72
2022/03/04 02:46:58;;;;;;;;;;;;;;;-139.48;100.00;61774.03;5013789;28;20057;-72
2022/03/04 02:49:42;;;;;;;27.63;12.63;;;;;;;-139.48;100.00;61774.03;5013729;28;19923;-72
2022/03/04 02:52:26;;;;;;;23.35;12.57;;;;;;;-139.48;100.00;61774.03;5012247;28;20275;-73
2022/03/04 02:55:11;;;;;;;;;;;;;;;-139.48;100.00;61774.03;4998846;28;20116;-73
2022/03/04 02:57:55;;;;;;;27.60;12.45;;;;;;;-139.48;100.00;61774.03;5011940;28;19921;-73
2022/03/04 03:00:39;;;;;;;;;;;;;;;-139.48;100.00;61774.03;5012423;28;20057;-73
2022/03/04 03:03:23;;;;;;;27.25;13.93;;;;;;;-139.48;100.00;61774.03;5012340;28;20055;-73
2022/03/04 03:06:08;;;;;;;;;;;;;;;-139.48;100.00;61774.03;5013805;28;20188;-72
2022/03/04 03:08:52;;;;;;;27.63;13.13;;;;;;;-139.48;100.00;61774.03;5012032;28;20261;-72
2022/03/04 03:11:35;;;;;;;26.02;13.18;;;;;;;-139.48;100.00;61774.03;5013071;28;20057;-73
2022/03/04 03:14:19;;;;;;;31.55;13.23;;;;;;;-139.48;100.00;61774.03;5012132;28;20558;-73
2022/03/04 03:17:04;;;;;;;23.13;12.98;;;;;;;-139.48;100.00;61774.03;5012961;28;20474;-72
2022/03/04 03:19:48;;;;;;;28.33;14.00;;;;;;;-139.48;100.00;61774.03;5012981;28;20048;-73
2022/03/04 03:22:31;;;;;;;;;;;;;;;-139.48;100.00;61774.03;5014962;28;20167;-72
2022/03/04 03:25:16;;;;;;;26.23;13.63;;;;;;;-139.48;100.00;61774.03;5012188;28;19952;-72
2022/03/04 03:27:59;;;;;;;;;;;;;;;-139.48;100.00;61774.03;5012232;28;20088;-70
2022/03/04 03:30:43;;;;;;;28.77;13.90;;;;;;;-139.48;100.00;61774.03;5012734;28;19960;-73
2022/03/04 03:33:27;;;;;;;;;;;;;;;-139.48;100.00;61774.03;5015944;28;20362;-73
2022/03/04 03:36:11;;;;;;;18.48;9.60;;;;;;;-139.48;100.00;61774.03;5015494;28;19968;-73
2022/03/04 03:38:55;;;;;;;;;;;;;;;-139.48;100.00;61774.03;5016150;28;20445;-73
2022/03/04 03:41:39;;;;;;;29.00;15.13;;;;;;;-139.48;100.00;61774.03;5016522;28;19920;-72
2022/03/04 03:44:23;;;;;;;;;;;;;;;-139.48;100.00;61774.03;5016046;28;20555;-73
2022/03/04 03:47:09;;;;;;;29.85;14.18;;;;;;;-139.48;100.00;61774.03;5016934;28;20441;-73
2022/03/04 03:49:53;;;;;;;30.27;14.35;;;;;;;-139.48;100.00;61774.03;5015469;28;20041;-73
2022/03/04 03:52:37;;;;;;;;;;;;;;;-139.48;100.00;61774.03;5016949;28;20048;-73
2022/03/04 03:55:21;;;;;;;30.35;14.75;;;;;;;-139.48;100.00;61774.03;5016257;28;19921;-72
2022/03/04 03:58:04;;;;;;;27.48;14.52;;;;;;;-139.48;100.00;61774.03;5001251;28;20508;-70
2022/03/04 04:00:49;;;;;;;;;;;;;;;-139.48;100.00;61774.03;5016799;28;20202;-73
2022/03/04 04:03:33;;;;;;;33.35;16.38;;;;;;;-139.48;100.00;61774.03;5016079;28;19971;-72
2022/03/04 04:06:17;;;;;;;29.15;14.52;;;;;;;-139.48;100.00;61774.03;5015091;28;20099;-73
2022/03/04 04:09:02;;;;;;;29.15;14.95;;;;;;;-139.48;100.00;61774.03;5016151;28;20480;-73
2022/03/04 04:11:46;;;;;;;30.10;15.25;;;;;;;-139.48;100.00;61774.03;5015877;28;20049;-72
2022/03/04 04:14:30;;;;;;;28.40;14.18;;;;;;;-139.48;100.00;61774.03;5014941;28;20081;-73
2022/03/04 04:17:14;;;;;;;;;;;;;;;-139.48;100.00;61774.03;5015201;28;20048;-73
2022/03/04 04:19:58;;;;;;;32.50;15.45;;;;;;;-139.48;100.00;61774.03;5015771;28;19995;-72
2022/03/04 04:22:42;;;;;;;35.03;16.98;;;;;;;-139.48;100.00;61774.03;5015697;28;20107;-72
2022/03/04 04:25:26;;;;;;;33.55;17.10;;;;;;;-139.48;100.00;61774.03;5014919;28;20057;-73
2022/03/04 04:28:10;;;;;;;;;;;;;;;-139.48;100.00;61774.03;5014981;28;20124;-73
2022/03/04 04:30:54;;;;;;;27.60;12.23;;;;;;;-139.48;100.00;61774.03;5014757;28;20495;-73
2022/03/04 04:33:38;;;;;;;34.00;16.98;;;;;;;-139.48;100.00;61774.03;5014760;28;20528;-72
2022/03/04 04:36:22;;;;;;;39.00;17.38;;;;;;;-139.48;100.00;61774.03;5014662;28;20516;-72
2022/03/04 04:39:05;;;;;;;;;;;;;;;-139.48;100.00;61774.03;5014936;28;20091;-72
2022/03/04 04:41:49;;;;;;;31.50;15.40;;;;;;;-139.48;100.00;61774.03;5014277;28;19936;-73
2022/03/04 04:44:33;;;;;;;;;;;;;;;-139.48;100.00;61774.03;5014067;28;20295;-73
2022/03/04 04:47:17;;;;;;;25.05;12.82;;;;;;;-139.48;100.00;61774.03;5014458;28;19960;-73
2022/03/04 04:50:01;;;;;;;;;;;;;;;-139.48;100.00;61774.03;5014600;28;20045;-73
2022/03/04 04:52:45;;;;;;;31.50;15.98;;;;;;;-139.48;100.00;61774.03;5014368;28;19939;-72
2022/03/04 04:55:29;;;;;;;38.53;17.20;;;;;;;-139.48;100.00;61774.03;5015094;28;20069;-74
2022/03/04 04:58:13;;;;;;;31.40;16.73;;;;;;;-139.48;100.00;61774.03;5014260;28;20049;-72
2022/03/04 05:00:57;;;;;;;34.47;16.23;;;;;;;-139.48;100.00;61774.03;5013955;28;20561;-72
2022/03/04 05:03:43;;;;;;;;;;;;;;;-139.48;100.00;61774.03;5000761;28;20064;-73
2022/03/04 05:06:27;;;;;;;32.85;15.82;;;;;;;-139.48;100.00;61774.03;5015205;28;19994;-72
2022/03/04 05:09:11;;;;;;;34.10;16.83;;;;;;;-139.48;100.00;61774.03;5014791;28;20049;-72
2022/03/04 05:11:55;;;;;;;;;;;;;;;-139.48;100.00;61774.03;5014173;28;20091;-73
2022/03/04 05:14:39;;;;;;;22.92;11.40;;;;;;;-139.48;100.00;61774.03;5014037;28;19920;-73
2022/03/04 05:17:24;;;;;;;34.72;16.33;;;;;;;-139.48;100.00;61774.03;5014911;28;20053;-73
2022/03/04 05:20:08;;;;;;;37.97;18.23;;;;;;;-139.48;100.00;61774.03;5014080;28;20095;-73
2022/03/04 05:22:53;;;;;;;36.35;17.52;;;;;;;-139.48;100.00;61774.03;5014591;28;20052;-72
2022/03/04 05:25:36;;;;;;;;;;;;;;;-139.48;100.00;61774.03;5015030;28;20096;-73
2022/03/04 05:28:20;;;;;;;38.05;16.90;;;;;;;-139.48;100.00;61774.03;5013643;28;20340;-73
2022/03/04 05:31:04;;;;;;;;;;;;;;;-139.48;100.00;61774.03;5014820;28;20049;-73
2022/03/04 05:33:50;;;;;;;26.85;12.80;;;;;;;-139.48;100.00;61774.03;5014507;28;20333;-72
2022/03/04 05:36:37;;;;;;;30.83;15.98;;;;;;;-139.48;100.00;61774.03;5014883;28;20088;-73
2022/03/04 05:39:21;;;;;;;35.92;16.58;;;;;;;-139.48;100.00;61774.03;5013595;28;20068;-73
2022/03/04 05:42:05;;;;;;;37.47;16.80;;;;;;;-139.48;100.00;61774.03;5014325;28;20052;-72
2022/03/04 05:44:49;;;;;;;33.85;17.70;;;;;;;-139.48;100.00;61774.03;5014496;28;20413;-72
2022/03/04 05:47:32;;;;;;;;;;;;;;;-139.48;100.00;61774.03;5013826;28;20057;-73
2022/03/04 05:50:16;;;;;;;36.50;18.15;;;;;;;-139.48;100.00;61774.03;5014042;28;19955;-73
2022/03/04 05:53:00;;;;;;;39.67;18.17;;;;;;;-139.48;100.00;61774.03;5013254;28;20056;-72
2022/03/04 05:55:44;;;;;;;39.30;19.52;;;;;;;-139.48;100.00;61774.03;5012959;28;20060;-72
2022/03/04 05:58:28;;;;;;;;;;;;;;;-139.48;100.00;61774.03;5014415;28;20056;-73
2022/03/04 06:01:12;;;;;;;37.72;19.23;;;;;;;-139.48;100.00;61774.03;5014002;28;19921;-72
2022/03/04 06:03:56;;;;;;;42.97;21.15;;;;;;;-139.48;100.00;61774.03;4999030;28;20544;-73
2022/03/04 06:06:40;;;;;;;;;;;;;;;-139.48;100.00;61774.03;5013471;28;20120;-73
2022/03/04 06:09:28;;;;;;;36.72;18.35;;;;;;;-139.48;100.00;61774.03;5013785;28;19971;-72
2022/03/04 06:12:12;;;;;;;39.28;18.52;;;;;;;-139.48;100.00;61774.03;5012651;28;20461;-73
2022/03/04 06:14:56;;;;;;;;;;;;;;;-139.48;100.00;61774.03;5014128;28;20096;-73
2022/03/04 06:17:45;;;;;;;37.97;18.30;;;;;;;-139.48;100.00;61774.03;5013861;28;19940;-71
2022/03/04 06:20:29;;;;;;;39.65;18.10;;;;;;;-139.48;100.00;61774.03;5013872;28;20119;-73
2022/03/04 06:23:14;;;;;;;35.00;18.23;;;;;;;-139.48;100.00;61774.03;5013547;28;20135;-73
2022/03/04 06:25:58;;;;;;;38.40;18.98;;;;;;;-139.48;100.00;61774.03;5012494;28;20147;-73
2022/03/04 06:28:42;;;;;;;;;;;;;;;-139.48;100.00;61774.03;5012925;28;20398;-73
2022/03/04 06:31:26;;;;;;;34.90;16.63;;;;;;;-139.48;100.00;61774.03;5012596;28;20375;-73
2022/03/04 06:34:10;;;;;;;36.08;18.35;;;;;;;-139.48;100.00;61774.03;5012283;28;20052;-72
2022/03/04 06:36:54;;;;;;;;;;;;;;;-139.48;100.00;61774.03;5013944;28;20053;-72
2022/03/04 06:39:39;;;;;;;35.15;18.10;;;;;;;-139.48;100.00;61774.03;5013535;28;19975;-73
2022/03/04 06:42:23;;;;;;;35.28;17.60;;;;;;;-139.48;100.00;61774.03;5013094;28;20568;-71
2022/03/04 06:45:08;;;;;;;;;;;;;;;-139.48;100.00;61774.03;5013618;28;20092;-72
2022/03/04 06:47:52;;;;;;;37.28;18.08;;;;;;;-139.48;100.00;61774.03;5012063;28;20032;-72
2022/03/04 06:50:36;;;;;;;36.60;18.25;;;;;;;-139.48;100.00;61774.03;5013229;28;20052;-72
2022/03/04 06:53:20;;;;;;;37.95;18.38;;;;;;;-139.48;100.00;61774.03;5013266;28;20552;-73
2022/03/04 06:56:04;;;;;;;41.45;18.67;;;;;;;-139.48;100.00;61774.03;5013289;28;20416;-73
2022/03/04 06:58:48;;;;;;;;;;;;;;;-139.48;100.00;61774.03;5012613;28;20045;-73
2022/03/04 07:01:32;;;;;;;36.90;18.50;;;;;;;-139.48;100.00;61774.03;5011699;28;19970;-72
2022/03/04 07:04:16;;;;;;;39.42;19.30;;;;;;;-139.48;100.00;61774.03;5012176;28;20111;-71
2022/03/04 07:07:00;;;;;;;40.47;18.98;;;;;;;-139.48;100.00;61774.03;5012934;28;20053;-71
2022/03/04 07:09:49;;;;;;;38.85;19.02;;;;;;;-139.48;100.00;61774.03;5013547;28;20386;-72
2022/03/04 07:12:33;;;;;;;35.92;17.58;;;;;;;-139.48;100.00;61774.03;5013096;28;20053;-71
2022/03/04 07:15:17;;;;;;;;;;;;;;;-139.48;100.00;61774.03;5013763;28;20107;-71
2022/03/04 07:18:02;;;;;;;39.40;18.92;;;;;;;-139.48;100.00;61774.03;5012043;28;19938;-71
2022/03/04 07:20:46;;;;;;;39.25;19.35;;;;;;;-139.48;100.00;61774.03;5013146;28;20096;-72
2022/03/04 07:23:30;;;;;;;37.72;19.92;;;;;;;-139.48;100.00;61774.03;5012004;28;20129;-70
2022/03/04 07:26:13;;;;;;;;;;;;;;;-139.48;100.00;61774.03;4998793;28;20497;-71
2022/03/04 07:28:57;;;;;;;42.78;19.88;;;;;;;-139.48;100.00;61774.03;5011946;28;20391;-72
2022/03/04 07:31:41;;;;;;;41.72;19.52;;;;;;;-139.48;100.00;61774.03;5012021;28;20092;-71
2022/03/04 07:34:25;;;;;;;43.40;20.10;;;;;;;-139.48;100.00;61774.03;5012942;28;20052;-71
2022/03/04 07:37:12;;;;;;;35.22;18.83;;;;;;;-139.48;100.00;61774.03;5011892;28;20088;-71
2022/03/04 07:39:56;;;;;;;37.88;19.52;;;;;;;-139.48;100.00;61774.03;5012904;28;20057;-71
2022/03/04 07:42:40;;;;;;;;;;;;;;;-139.48;100.00;61774.03;5013221;28;20053;-71
2022/03/04 07:45:24;;;;;;;33.57;18.30;;;;;;;-139.48;100.00;61774.03;5011712;28;19920;-71
2022/03/04 07:48:08;;;;;;;46.22;20.63;;;;;;;-139.48;100.00;61774.03;5012950;28;20088;-71
2022/03/04 07:50:51;;;;;;;36.53;19.08;;;;;;;-139.48;100.00;61774.03;5012598;28;20056;-70
2022/03/04 07:53:35;;;;;;;;;;;;;;;-139.48;100.00;61774.03;5013249;28;20104;-71
2022/03/04 07:56:19;;;;;;;41.42;20.58;;;;;;;-139.48;100.00;61774.03;4997630;28;19920;-71
2022/03/04 07:59:03;;;;;;;37.05;20.23;;;;;;;-139.48;100.00;61774.03;5011882;28;20056;-71
2022/03/04 08:01:48;;;;;;;38.60;19.88;;;;;;;-139.48;100.00;61774.03;5012302;28;20103;-72
2022/03/04 08:04:31;;;;;;;43.65;20.55;;;;;;;-139.48;100.00;61774.03;4997813;28;20052;-72
2022/03/04 08:07:17;;;;;;;39.70;20.25;;;;;;;-139.48;100.00;61774.03;5011612;28;20505;-72
2022/03/04 08:10:01;;;;;;;38.33;20.60;;;;;;;-139.48;100.00;61774.03;5011228;28;20100;-72
2022/03/04 08:12:45;;;;;;;39.72;20.02;;;;;;;-139.48;100.00;61774.03;5012308;28;20128;-72
2022/03/04 08:15:30;;;;;;;47.72;22.90;;;;;;;-139.48;100.00;61774.03;5011598;28;20068;-73
2022/03/04 08:18:14;;;;;;;39.55;21.42;;;;;;;-139.48;100.00;61774.03;5011299;28;20409;-72
2022/03/04 08:20:59;;;;;;;45.65;22.25;;;;;;;-139.48;100.00;61774.03;5015158;28;20057;-72
2022/03/04 08:23:43;;;;;;;41.72;19.13;;;;;;;-139.48;100.00;61774.03;5014861;28;20116;-72
2022/03/04 08:26:27;;;;;;;;;;;;;;;-139.48;100.00;61774.03;5015422;28;20104;-72
2022/03/04 08:29:11;;;;;;;36.47;20.00;;;;;;;-139.48;100.00;61774.03;5014710;28;19924;-72
2022/03/04 08:31:55;;;;;;;40.30;20.42;;;;;;;-139.48;100.00;61774.03;5015843;28;20056;-72
2022/03/04 08:34:39;;;;;;;42.60;22.20;;;;;;;-139.48;100.00;61774.03;5014790;28;20156;-72
2022/03/04 08:37:23;;;;;;;47.88;22.20;;;;;;;-139.48;100.00;61774.03;5015521;28;20056;-72
2022/03/04 08:40:09;;;;;;;45.38;20.70;;;;;;;-139.48;100.00;61774.03;5014361;28;20048;-72
2022/03/04 08:42:53;;;;;;;45.53;21.92;;;;;;;-139.48;100.00;61774.03;5014612;28;20072;-72
2022/03/04 08:45:37;;;;;;;35.20;20.33;;;;;;;-139.48;100.00;61774.03;5014532;28;20054;-72
2022/03/04 08:48:23;;;;;;;37.58;20.15;;;;;;;-139.48;100.00;61774.03;5014159;28;20049;-72
2022/03/04 08:51:07;;;;;;;40.33;21.33;;;;;;;-139.48;100.00;61774.03;5014389;28;20084;-72
2022/03/04 08:53:54;;;;;;;36.95;19.65;;;;;;;-139.48;100.00;61774.03;5014376;28;20104;-72
2022/03/04 08:56:38;;;;;;;37.03;20.30;;;;;;;-139.48;100.00;61774.03;5014157;28;20060;-72
2022/03/04 08:59:22;;;;;;;41.63;20.92;;;;;;;-139.48;100.00;61774.03;5015050;28;20505;-72
2022/03/04 09:02:06;;;;;;;41.03;21.80;;;;;;;-139.48;100.00;61774.03;5014904;28;20517;-72
2022/03/04 09:04:50;;;;;;;38.20;21.35;;;;;;;-139.48;100.00;61774.03;5014224;28;20056;-72
2022/03/04 09:07:35;;;;;;;36.50;20.15;;;;;;;-139.48;100.00;61774.03;5015190;28;20473;-71
2022/03/04 09:10:19;;;;;;;37.30;20.55;;;;;;;-139.48;100.00;61774.03;5013706;28;20149;-72
2022/03/04 09:13:04;;;;;;;38.05;20.13;;;;;;;-139.48;100.00;61774.03;5014930;28;20128;-73
2022/03/04 09:15:48;;;;;;;39.10;21.23;;;;;;;-139.48;100.00;61774.03;5014155;28;20418;-73
2022/03/04 09:18:32;;;;;;;44.95;21.92;;;;;;;-139.48;100.00;61774.03;5013682;28;20044;-72
2022/03/04 09:21:16;;;;;;;39.95;21.60;;;;;;;-139.48;100.00;61774.03;5014611;28;20045;-72
2022/03/04 09:24:00;;;;;;;36.88;21.33;;;;;;;-139.48;100.00;61774.03;5016259;28;20409;-72
2022/03/04 09:26:44;;;;;;;40.97;22.15;;;;;;;-139.48;100.00;61774.03;5013705;28;20131;-73
2022/03/04 09:29:28;;;;;;;44.92;22.85;;;;;;;-139.48;100.00;61774.03;5013092;28;20168;-72
2022/03/04 09:32:12;;;;;;;54.00;28.63;;;;;;;-139.48;100.00;61774.03;5014409;28;20188;-72
2022/03/04 09:34:56;;;;;;;43.08;24.77;;;;;;;-139.48;100.00;61774.03;5013654;28;20049;-73
2022/03/04 09:37:40;;;;;;;36.13;21.73;;;;;;;-139.48;100.00;61774.03;5013527;28;20053;-73
2022/03/04 09:40:24;;;;;;;36.67;21.73;;;;;;;-139.48;100.00;61774.03;5013191;28;20085;-72
2022/03/04 09:43:08;;;;;;;38.92;23.08;;;;;;;-139.48;100.00;61774.03;5014220;28;20052;-72
2022/03/04 09:45:52;;;;;;;32.00;21.33;;;;;;;-139.48;100.00;61774.03;4999445;28;20100;-72
2022/03/04 09:48:40;;;;;;;41.92;27.85;;;;;;;-139.48;100.00;61774.03;5014292;28;20192;-73
2022/03/04 09:51:23;;;;;;;34.42;24.73;;;;;;;-139.48;100.00;61774.03;5013061;28;20123;-72
2022/03/04 09:54:07;;;;;;;;;;;;;;;-139.48;100.00;61774.03;5013781;28;20053;-71
2022/03/04 09:56:52;;;;;;;39.77;24.20;;;;;;;-139.48;100.00;61774.03;5014038;28;19920;-72
2022/03/04 09:59:36;;;;;;;32.67;23.17;;;;;;;-139.48;100.00;61774.03;4999203;28;20040;-72
2022/03/04 10:02:20;;;;;;;31.10;23.25;;;;;;;-139.48;100.00;61774.03;5013425;28;20133;-70
2022/03/04 10:05:04;;;;;;;36.53;26.25;;;;;;;-139.48;100.00;61774.03;5013845;28;20131;-72
2022/03/04 10:07:50;;;;;;;66.75;47.13;;;;;;;-139.48;100.00;61774.03;5012940;28;20513;-72
2022/03/04 10:10:34;;;;;;;35.55;24.95;;;;;;;-139.48;100.00;61774.03;5012646;28;20088;-72
2022/03/04 10:13:40;;;;;;;33.90;24.75;;;;;;;-139.48;100.00;61774.03;5013989;28;20048;-72
2022/03/04 10:16:28;;;;;;;36.63;25.73;;;;;;;-139.48;100.00;61774.03;5013915;28;20397;-72
2022/03/04 10:19:13;;;;;;;34.70;24.63;;;;;;;-139.48;100.00;61774.03;5012636;28;20409;-72
2022/03/04 10:22:03;;;;;;;34.72;24.52;;;;;;;-139.48;100.00;61774.03;5012752;28;20053;-72
2022/03/04 10:24:48;;;;;;;33.95;25.30;;;;;;;-139.48;100.00;61774.03;5013754;28;20044;-72
2022/03/04 10:27:34;;;;;;;32.72;24.48;;;;;;;-139.48;100.00;61774.03;5013569;28;20106;-71
2022/03/04 10:30:29;;;;;;;31.15;24.73;;;;;;;-139.48;100.00;61774.03;5013418;28;20088;-72
2022/03/04 10:33:18;;;;;;;33.88;25.55;;;;;;;-139.48;100.00;61774.03;5012265;28;20409;-72
2022/03/04 10:36:13;;;;;;;34.60;24.83;;;;;;;-139.48;100.00;61774.03;5012500;28;20126;-72
2022/03/04 10:39:10;;;;;;;35.28;26.15;;;;;;;-139.48;100.00;61774.03;5013302;28;20048;-72
2022/03/04 10:41:55;;;;;;;34.90;24.13;;;;;;;-139.48;100.00;61774.03;5012490;28;20513;-72
2022/03/04 10:44:39;;;;;;;34.10;24.73;;;;;;;-139.48;100.00;61774.03;5013671;28;20096;-72
2022/03/04 10:47:23;;;;;;;;;;;;;;;-139.48;100.00;61774.03;5013801;28;20501;-72
2022/03/04 10:50:08;;;;;;;31.58;23.15;;;;;;;-139.48;100.00;61774.03;5011878;28;20392;-72
2022/03/04 10:52:51;;;;;;;32.50;21.55;;;;;;;-139.48;100.00;61774.03;5012308;28;20127;-72
2022/03/04 10:55:45;;;;;;;28.95;22.10;;;;;;;-139.48;100.00;61774.03;5013314;28;20053;-72
2022/03/04 10:58:34;;;;;;;29.98;23.73;;;;;;;-139.48;100.00;61774.03;5013159;28;20052;-72
2022/03/04 11:01:19;;;;;;;42.45;32.55;;;;;;;-139.48;100.00;61774.03;5011777;28;20359;-72
2022/03/04 11:04:03;;;;;;;30.05;22.88;;;;;;;-139.48;100.00;61774.03;5012165;28;20077;-72
2022/03/04 11:06:49;;;;;;;33.25;23.58;;;;;;;-139.48;100.00;61774.03;5012345;28;20061;-72
2022/03/04 11:09:33;;;;;;;32.50;23.60;;;;;;;-139.48;100.00;61774.03;5012892;28;20402;-72
2022/03/04 11:12:17;;;;;;;31.17;22.27;;;;;;;-139.48;100.00;61774.03;5011826;28;20057;-72
2022/03/04 11:15:01;;;;;;;33.38;22.13;;;;;;;-139.48;100.00;61774.03;5013078;28;20060;-72
2022/03/04 11:17:46;;;;;;;32.50;23.88;;;;;;;-139.48;100.00;61774.03;4997965;28;20104;-72
2022/03/04 11:20:31;;;;;;;34.20;24.52;;;;;;;-139.48;100.00;61774.03;5012175;28;20103;-72
2022/03/04 11:23:23;;;;;;;33.05;24.35;;;;;;;-139.48;100.00;61774.03;5012215;28;20111;-72
2022/03/04 11:26:18;;;;;;;29.48;22.65;;;;;;;-139.48;100.00;61774.03;5011729;28;20049;-72
2022/03/04 11:29:03;;;;;;;28.75;21.48;;;;;;;-139.48;100.00;61774.03;5011969;28;20057;-73
2022/03/04 11:31:48;;;;;;;31.10;21.73;;;;;;;-139.48;100.00;61774.03;5012591;28;20113;-72
2022/03/04 11:34:39;;;;;;;28.52;21.92;;;;;;;-139.48;100.00;61774.03;5011928;28;20053;-72
2022/03/04 11:37:23;;;;;;;32.05;23.83;;;;;;;-139.48;100.00;61774.03;5012865;28;20414;-72
2022/03/04 11:43:18;;;;;;;28.17;21.75;;;;;;;-139.48;100.00;61774.03;5011768;28;20103;-73
2022/03/04 11:46:03;;;;;;;29.15;22.33;;;;;;;-139.48;100.00;61774.03;5011789;28;20519;-73
2022/03/04 11:48:48;;;;;;;28.90;22.15;;;;;;;-139.48;100.00;61774.03;5012670;28;20082;-73
2022/03/04 11:51:32;;;;;;;27.00;21.88;;;;;;;-139.48;100.00;61774.03;5011503;28;20045;-73
2022/03/04 11:54:23;;;;;;;30.73;23.25;;;;;;;-139.48;100.00;61774.03;5014390;28;20052;-72
2022/03/04 11:57:25;;;;;;;27.80;20.23;;;;;;;-139.48;100.00;61774.03;5016558;28;20048;-73
2022/03/04 12:00:17;;;;;;;26.52;20.63;;;;;;;-139.48;100.00;61774.03;5016057;28;20060;-73
2022/03/04 12:03:13;;;;;;;27.35;20.45;;;;;;;-139.48;100.00;61774.03;5016671;28;20061;-72
2022/03/04 12:06:00;;;;;;;28.30;20.30;;;;;;;-139.48;100.00;61774.03;5015140;28;20092;-72
2022/03/04 12:08:44;;;;;;;24.15;17.77;;;;;;;-139.48;100.00;61774.03;5014943;28;20075;-72
2022/03/04 12:11:28;;;;;;;29.58;18.58;;;;;;;-139.48;100.00;61774.03;5016185;28;20464;-73
2022/03/04 12:14:12;;;;;;;25.98;18.48;;;;;;;-139.48;100.00;61774.03;5015208;28;20199;-72
2022/03/04 12:16:56;;;;;;;26.63;18.50;;;;;;;-139.48;100.00;61774.03;5014964;28;20418;-72
2022/03/04 12:19:41;;;;;;;26.45;19.73;;;;;;;-139.48;100.00;61774.03;5015342;28;20079;-72
2022/03/04 12:22:25;;;;;;;24.63;18.27;;;;;;;-139.48;100.00;61774.03;5014738;28;20088;-71
2022/03/04 12:25:09;;;;;;;25.17;17.58;;;;;;;-139.48;100.00;61774.03;5016063;28;20053;-71
2022/03/04 12:27:54;;;;;;;26.65;18.42;;;;;;;-139.48;100.00;61774.03;5014723;28;20104;-72